Time;durP1;ratioP1;P1;durP2;ratioP2;P2;SDS_P1;SDS_P2;PMS_P1;PMS_P2;Temp;Humidity;BMP_temperature;BMP_pressure;BME280_temperature;BME280_humidity;BME280_pressure;Samples;Min_cycle;Max_cycle;Signal;HPM_P1;HPM_P2
2022/09/18 00:01:43;;;;;;;19.52;2.20;;;;;;;;;;5107639;28;20100;-83
2022/09/18 00:04:15;;;;;;;6.18;1.98;;;10.90;99.90;;;;;;5107851;28;20044;-86
2022/09/18 00:06:42;;;;;;;8.73;2.05;;;10.80;99.90;;;;;;5090481;28;20048;-86
2022/09/18 00:09:10;;;;;;;11.77;2.10;;;;;;;;;;5057036;28;20051;-87
2022/09/18 00:11:39;;;;;;;6.78;1.75;;;10.70;99.90;;;;;;5106565;28;20044;-86
2022/09/18 00:14:06;;;;;;;5.43;1.88;;;10.80;99.90;;;;;;5073632;28;20051;-84
2022/09/18 00:16:33;;;;;;;6.57;2.13;;;;;;;;;;5107402;28;20048;-82
2022/09/18 00:18:59;;;;;;;8.73;2.00;;;;;;;;;;5056887;28;20520;-84
2022/09/18 00:21:25;;;;;;;14.40;2.38;;;;;;;;;;5062419;28;20127;-82
2022/09/18 00:23:55;;;;;;;8.68;2.53;;;;;;;;;;5114545;28;20447;-83
2022/09/18 00:26:24;;;;;;;6.38;1.70;;;10.90;99.90;;;;;;5063762;28;20039;-83
2022/09/18 00:28:50;;;;;;;6.43;2.20;;;;;;;;;;5107954;28;20055;-84
2022/09/18 00:31:19;;;;;;;7.22;2.20;;;11.00;99.90;;;;;;5080305;28;20040;-81
2022/09/18 00:33:46;;;;;;;9.13;1.90;;;;;;;;;;5063364;28;20040;-84
2022/09/18 00:36:14;;;;;;;8.20;2.22;;;11.10;99.90;;;;;;5080375;28;20059;-84
2022/09/18 00:38:40;;;;;;;6.97;2.20;;;;;;;;;;5063268;28;20036;-84
2022/09/18 00:41:16;;;;;;;8.68;1.70;;;11.10;99.90;;;;;;5080061;28;20087;-84
2022/09/18 00:43:42;;;;;;;9.70;2.30;;;;;;;;;;5080368;28;20123;-84
2022/09/18 00:46:35;;;;;;;6.80;2.45;;;11.10;99.90;;;;;;5063854;28;20138;-84
2022/09/18 00:49:04;;;;;;;7.38;1.83;;;;;;;;;;5080081;28;20048;-84
2022/09/18 00:51:36;;;;;;;4.00;1.67;;;10.90;99.90;;;;;;5114200;28;20423;-84
2022/09/18 00:54:17;;;;;;;11.60;2.13;;;;;;;;;;5114317;28;20066;-84
2022/09/18 00:56:43;;;;;;;12.63;2.08;;;;;;;;;;5063373;28;20044;-84
2022/09/18 00:59:12;;;;;;;7.97;2.20;;;10.90;99.90;;;;;;5113982;28;20051;-84
2022/09/18 01:01:38;;;;;;;10.13;1.80;;;;;;;;;;5079795;28;20420;-84
2022/09/18 01:04:09;;;;;;;10.18;1.83;;;;;;;;;;5063412;28;20048;-83
2022/09/18 01:06:51;;;;;;;10.45;2.28;;;;;;;;;;5114062;28;20105;-83
2022/09/18 01:09:31;;;;;;;7.03;1.90;;;11.20;99.90;;;;;;5063185;28;20047;-83
2022/09/18 01:12:09;;;;;;;7.57;2.38;;;;;;;;;;5063038;28;20043;-84
2022/09/18 01:14:41;;;;;;;9.30;2.40;;;;;;;;;;5113581;28;20130;-82
2022/09/18 01:17:46;;;;;;;7.68;1.90;;;;;;;;;;5063049;28;20579;-82
2022/09/18 01:20:18;;;;;;;10.20;1.77;;;;;;;;;;5018909;28;20038;-83
2022/09/18 01:22:44;;;;;;;7.30;2.20;;;;;;;;;;5019023;28;20115;-84
2022/09/18 01:25:42;;;;;;;8.20;2.63;;;;;;;;;;5002370;28;20053;-84
2022/09/18 01:28:22;;;;;;;6.82;1.75;;;11.10;99.90;;;;;;4979445;28;20058;-84
2022/09/18 01:30:53;;;;;;;15.00;1.95;;;11.20;99.90;;;;;;4982890;28;20061;-83
2022/09/18 01:33:30;;;;;;;9.48;1.67;;;11.00;99.90;;;;;;4995214;28;20084;-83
2022/09/18 01:36:01;;;;;;;11.63;2.45;;;11.00;99.90;;;;;;4995544;28;20042;-83
2022/09/18 01:38:27;;;;;;;3.40;1.48;;;;;;;;;;4979938;28;20573;-83
2022/09/18 01:40:56;;;;;;;8.93;2.47;;;;;;;;;;4979763;28;20042;-83
2022/09/18 01:43:25;;;;;;;13.68;2.35;;;11.10;99.90;;;;;;4979633;28;20049;-83
2022/09/18 01:45:54;;;;;;;9.45;2.50;;;11.20;99.90;;;;;;4979890;28;20085;-81
2022/09/18 01:48:35;;;;;;;9.75;2.40;;;11.10;99.90;;;;;;4979705;28;20518;-81
2022/09/18 01:51:10;;;;;;;3.45;1.45;;;11.00;99.90;;;;;;5024791;28;20079;-82
2022/09/18 01:53:46;;;;;;;6.45;2.13;;;11.10;99.90;;;;;;5044320;28;20045;-82
2022/09/18 01:56:36;;;;;;;11.55;2.55;;;11.10;99.90;;;;;;5015147;28;20053;-82
2022/09/18 01:59:07;;;;;;;8.38;2.22;;;11.10;99.90;;;;;;5010454;28;20406;-83
2022/09/18 02:01:36;;;;;;;13.07;2.33;;;11.10;99.90;;;;;;5015562;28;20515;-82
2022/09/18 02:04:07;;;;;;;9.65;2.20;;;10.90;99.90;;;;;;5037842;28;20391;-83
2022/09/18 02:06:47;;;;;;;9.80;1.88;;;11.10;99.90;;;;;;5059227;28;20036;-85
2022/09/18 02:09:13;;;;;;;13.38;2.00;;;;;;;;;;5075891;28;20192;-84
2022/09/18 02:11:43;;;;;;;10.73;2.47;;;11.20;99.90;;;;;;5076291;28;20047;-85
2022/09/18 02:14:25;;;;;;;9.10;2.20;;;;;;;;;;5092983;28;20556;-84
2022/09/18 02:16:56;;;;;;;5.15;1.95;;;11.00;99.90;;;;;;5058843;28;20055;-83
2022/09/18 02:19:35;;;;;;;12.50;1.98;;;10.90;99.90;;;;;;5058981;28;20039;-84
2022/09/18 02:22:03;;;;;;;8.68;2.00;;;;;;;;;;5109513;28;20411;-85
2022/09/18 02:24:34;;;;;;;12.10;2.58;;;10.80;99.90;;;;;;5059141;28;20040;-84
2022/09/18 02:27:01;;;;;;;14.45;2.78;;;11.10;99.90;;;;;;5076014;28;20048;-82
2022/09/18 02:29:27;;;;;;;10.68;2.65;;;;;;;;;;5097270;28;20464;-84
2022/09/18 02:31:54;;;;;;;12.55;2.10;;;;;;;;;;5085449;28;20450;-83
2022/09/18 02:34:20;;;;;;;6.38;1.83;;;;;;;;;;5075473;28;20036;-85
2022/09/18 02:37:08;;;;;;;11.77;2.20;;;;;;;;;;5075450;28;20122;-88
2022/09/18 02:40:06;;;;;;;9.32;2.08;;;11.00;99.90;;;;;;5075921;28;20101;-91
2022/09/18 02:43:24;;;;;;;9.50;1.85;;;11.10;99.90;;;;;;5075518;28;20102;-83
2022/09/18 02:46:01;;;;;;;8.57;1.75;;;;;;;;;;5009229;28;20046;-83
2022/09/18 02:48:48;;;;;;;15.07;2.17;;;;;;;;;;4978702;28;20056;-83
2022/09/18 02:51:27;;;;;;;8.73;1.90;;;;;;;;;;4994637;28;20050;-83
2022/09/18 02:54:06;;;;;;;5.07;1.80;;;;;;;;;;4994847;28;20141;-84
2022/09/18 02:56:43;;;;;;;2.15;1.60;;;10.90;99.90;;;;;;4994705;28;20111;-83
2022/09/18 02:59:22;;;;;;;11.52;2.15;;;;;;;;;;5010848;28;20041;-83
2022/09/18 03:01:48;;;;;;;3.85;1.75;;;;;;;;;;4985973;28;20133;-85
2022/09/18 03:04:19;;;;;;;7.20;1.70;;;;;;;;;;4974947;28;20084;-84
2022/09/18 03:06:45;;;;;;;7.22;1.98;;;;;;;;;;4958781;28;20069;-83
2022/09/18 03:09:11;;;;;;;11.82;1.80;;;;;;;;;;4990995;28;20050;-83
2022/09/18 03:11:37;;;;;;;9.35;1.55;;;;;;;;;;4991438;28;20042;-83
2022/09/18 03:14:04;;;;;;;11.00;1.85;;;;;;;;;;4974625;28;20587;-83
2022/09/18 03:16:30;;;;;;;5.60;1.60;;;;;;;;;;4974778;28;20050;-83
2022/09/18 03:18:56;;;;;;;13.80;2.58;;;;;;;;;;5000814;28;20060;-83
2022/09/18 03:21:22;;;;;;;5.47;1.48;;;;;;;;;;5057667;28;20446;-83
2022/09/18 03:23:48;;;;;;;10.43;1.77;;;;;;;;;;5074425;28;20050;-84
2022/09/18 03:26:15;;;;;;;5.47;1.33;;;;;;;;;;5074579;28;20047;-83
2022/09/18 03:28:41;;;;;;;7.35;1.70;;;;;;;;;;5066376;28;20036;-83
2022/09/18 03:31:07;;;;;;;3.03;1.92;;;;;;;;;;5094779;28;20047;-86
2022/09/18 03:33:33;;;;;;;6.28;2.05;;;;;;;;;;5077677;28;20092;-86
2022/09/18 03:35:59;;;;;;;7.97;1.60;;;;;;;;;;5093676;28;20036;-86
2022/09/18 03:38:25;;;;;;;10.35;1.70;;;;;;;;;;5077868;28;20039;-86
2022/09/18 03:40:51;;;;;;;7.32;1.73;;;;;;;;;;5077771;28;20082;-85
2022/09/18 03:43:17;;;;;;;6.05;2.00;;;;;;;;;;5094957;28;20126;-86
2022/09/18 03:45:43;;;;;;;7.03;1.90;;;;;;;;;;5112831;28;20075;-87
2022/09/18 03:48:09;;;;;;;10.35;1.50;;;;;;;;;;5094525;28;20047;-84
2022/09/18 03:50:35;;;;;;;11.68;2.40;;;;;;;;;;5094223;28;20032;-85
2022/09/18 03:53:01;;;;;;;12.70;2.08;;;;;;;;;;5093129;28;20073;-83
2022/09/18 03:55:27;;;;;;;5.50;1.60;;;;;;;;;;5094191;28;20046;-86
2022/09/18 03:57:53;;;;;;;6.55;2.00;;;;;;;;;;5086145;28;20403;-86
2022/09/18 04:00:19;;;;;;;5.47;1.40;;;;;;;;;;5077506;28;20565;-84
2022/09/18 04:02:45;;;;;;;5.10;1.50;;;;;;;;;;5094064;28;20256;-85
2022/09/18 04:05:11;;;;;;;7.43;1.85;;;;;;;;;;5094389;28;20051;-85
2022/09/18 04:07:37;;;;;;;7.18;1.60;;;10.90;99.90;;;;;;5093743;28;20039;-85
2022/09/18 04:10:03;;;;;;;16.55;1.60;;;;;;;;;;5076403;28;20461;-84
2022/09/18 04:12:29;;;;;;;5.40;1.38;;;;;;;;;;5094192;28;20122;-86
2022/09/18 04:14:55;;;;;;;6.75;1.48;;;;;;;;;;5112224;28;20044;-87
2022/09/18 04:17:21;;;;;;;6.85;2.17;;;;;;;;;;5078965;28;20047;-83
2022/09/18 04:19:47;;;;;;;6.30;2.00;;;;;;;;;;5095077;28;20048;-84
2022/09/18 04:22:13;;;;;;;4.00;1.60;;;;;;;;;;5093656;28;20488;-85
2022/09/18 04:24:40;;;;;;;3.05;1.50;;;;;;;;;;5112305;28;20116;-86
2022/09/18 04:27:06;;;;;;;5.28;1.30;;;;;;;;;;5092928;28;20077;-85
2022/09/18 04:29:32;;;;;;;4.18;1.50;;;;;;;;;;5060812;28;20071;-85
2022/09/18 04:31:58;;;;;;;5.53;1.40;;;;;;;;;;5056673;28;20097;-85
2022/09/18 04:34:24;;;;;;;6.38;1.60;;;;;;;;;;5056891;28;20135;-85
2022/09/18 04:36:50;;;;;;;4.70;1.73;;;;;;;;;;5073342;28;20121;-86
2022/09/18 04:39:17;;;;;;;6.32;1.67;;;;;;;;;;5056762;28;20040;-86
2022/09/18 04:41:46;;;;;;;5.13;1.58;;;;;;;;;;5056659;28;20036;-84
2022/09/18 04:44:12;;;;;;;9.90;2.05;;;;;;;;;;5074028;28;20404;-82
2022/09/18 04:46:38;;;;;;;7.13;1.33;;;;;;;;;;5073243;28;20044;-85
2022/09/18 04:49:04;;;;;;;7.75;1.85;;;;;;;;;;5056666;28;20089;-85
2022/09/18 04:51:30;;;;;;;9.82;1.70;;;;;;;;;;5073055;28;20043;-84
2022/09/18 04:53:56;;;;;;;5.60;1.33;;;;;;;;;;5056693;28;20052;-85
2022/09/18 04:56:22;;;;;;;7.78;1.48;;;;;;;;;;5073152;28;20044;-83
2022/09/18 04:58:49;;;;;;;3.90;1.35;;;;;;;;;;5056999;28;20485;-85
2022/09/18 05:01:16;;;;;;;4.93;1.30;;;;;;;;;;5073761;28;20052;-83
2022/09/18 05:03:42;;;;;;;5.28;1.50;;;;;;;;;;5073725;28;20083;-88
2022/09/18 05:06:08;;;;;;;5.60;1.38;;;;;;;;;;5056619;28;20471;-86
2022/09/18 05:08:34;;;;;;;2.30;1.50;;;;;;;;;;5060033;28;20040;-86
2022/09/18 05:11:01;;;;;;;7.78;1.67;;;;;;;;;;5063402;28;20541;-86
2022/09/18 05:13:27;;;;;;;3.40;1.20;;;;;;;;;;5061769;28;20039;-86
2022/09/18 05:15:58;;;;;;;7.93;1.33;;;;;;;;;;5077264;28;20139;-89
2022/09/18 05:18:24;;;;;;;2.55;1.00;;;;;;;;;;5060994;28;20048;-86
2022/09/18 05:20:51;;;;;;;3.22;1.23;;;;;;;;;;5060542;28;20174;-85
2022/09/18 05:23:17;;;;;;;4.18;1.15;;;;;;;;;;5060386;28;20051;-86
2022/09/18 05:25:43;;;;;;;4.95;1.35;;;;;;;;;;5060251;28;20044;-86
2022/09/18 05:28:10;;;;;;;7.68;1.20;;;;;;;;;;5082278;28;20054;-86
2022/09/18 05:30:36;;;;;;;6.00;1.45;;;;;;;;;;5081182;28;20040;-87
2022/09/18 05:33:06;;;;;;;7.47;1.92;;;;;;;;;;5097202;28;20043;-86
2022/09/18 05:35:33;;;;;;;10.50;1.60;;;;;;;;;;5096161;28;20495;-86
2022/09/18 05:37:59;;;;;;;3.17;1.27;;;;;;;;;;5096916;28;20040;-85
2022/09/18 05:40:29;;;;;;;1.55;1.40;;;;;;;;;;5080140;28;20551;-86
2022/09/18 05:42:55;;;;;;;5.90;1.48;;;;;;;;;;5080455;28;20128;-87
2022/09/18 05:45:22;;;;;;;2.90;1.23;;;;;;;;;;5096964;28;20125;-87
2022/09/18 05:47:58;;;;;;;4.28;1.25;;;;;;;;;;5096537;28;20047;-85
2022/09/18 05:50:26;;;;;;;5.88;1.50;;;10.80;99.90;;;;;;5096592;28;20054;-84
2022/09/18 05:52:58;;;;;;;14.80;2.10;;;;;;;;;;5078827;28;20071;-84
2022/09/18 05:55:24;;;;;;;7.28;1.65;;;;;;;;;;5096684;28;20075;-86
2022/09/18 05:57:54;;;;;;;6.75;1.48;;;;;;;;;;5096642;28;20046;-83
2022/09/18 06:00:20;;;;;;;14.23;2.15;;;;;;;;;;5096643;28;20054;-85
2022/09/18 06:02:55;;;;;;;7.07;1.65;;;;;;;;;;5096606;28;20126;-86
2022/09/18 06:05:21;;;;;;;4.82;1.67;;;;;;;;;;5079299;28;20055;-84
2022/09/18 06:07:47;;;;;;;5.82;1.90;;;;;;;;;;5113710;28;20032;-86
2022/09/18 06:10:13;;;;;;;9.40;2.38;;;;;;;;;;5114389;28;20100;-82
2022/09/18 06:12:39;;;;;;;8.82;2.15;;;;;;;;;;5095847;28;20377;-83
2022/09/18 06:15:05;;;;;;;8.55;1.52;;;;;;;;;;5079136;28;20157;-84
2022/09/18 06:17:32;;;;;;;8.52;1.55;;;;;;;;;;5096448;28;20069;-85
2022/09/18 06:19:58;;;;;;;4.32;1.40;;;;;;;;;;5079312;28;20513;-85
2022/09/18 06:22:25;;;;;;;5.00;1.25;;;;;;;;;;5095990;28;20047;-85
2022/09/18 06:24:51;;;;;;;7.70;1.30;;;;;;;;;;5077917;28;20043;-86
2022/09/18 06:27:17;;;;;;;6.32;1.23;;;;;;;;;;5079026;28;20043;-86
2022/09/18 06:29:43;;;;;;;5.68;0.77;;;;;;;;;;5061337;28;20051;-84
2022/09/18 06:32:09;;;;;;;2.55;0.70;;;;;;;;;;5075466;28;20048;-87
2022/09/18 06:34:35;;;;;;;2.15;0.50;;;;;;;;;;5058779;28;20075;-86
2022/09/18 06:37:02;;;;;;;1.63;0.63;;;;;;;;;;5058643;28;20404;-85
2022/09/18 06:39:28;;;;;;;2.60;0.70;;;;;;;;;;5058405;28;20044;-84
2022/09/18 06:41:54;;;;;;;7.22;0.95;;;;;;;;;;5059042;28;20044;-84
2022/09/18 06:44:20;;;;;;;3.53;1.50;;;;;;;;;;5075303;28;20101;-85
2022/09/18 06:46:46;;;;;;;5.15;1.02;;;;;;;;;;5058771;28;20036;-87
2022/09/18 06:49:13;;;;;;;5.70;0.93;;;;;;;;;;5058352;28;20071;-88
2022/09/18 06:51:39;;;;;;;3.40;1.02;;;;;;;;;;5075574;28;20058;-88
2022/09/18 06:54:05;;;;;;;8.52;1.05;;;;;;;;;;5075168;28;20051;-87
2022/09/18 06:56:31;;;;;;;1.52;0.82;;;;;;;;;;5058415;28;20040;-85
2022/09/18 06:58:57;;;;;;;3.53;1.00;;;;;;;;;;5075507;28;20109;-87
2022/09/18 07:01:24;;;;;;;10.18;1.25;;;;;;;;;;5075404;28;20039;-87
2022/09/18 07:03:50;;;;;;;2.83;1.25;;;;;;;;;;5093340;28;20053;-85
2022/09/18 07:06:16;;;;;;;4.85;1.48;;;;;;;;;;5058629;28;20046;-86
2022/09/18 07:08:42;;;;;;;6.80;1.30;;;;;;;;;;5058851;28;20044;-88
2022/09/18 07:11:08;;;;;;;5.32;1.52;;;;;;;;;;5059841;28;20039;-90
2022/09/18 07:13:36;;;;;;;3.75;1.27;;;;;;;;;;5058931;28;20055;-88
2022/09/18 07:16:02;;;;;;;8.20;1.88;;;;;;;;;;5059875;28;20063;-85
2022/09/18 07:18:29;;;;;;;5.57;1.55;;;;;;;;;;5081894;28;20044;-88
2022/09/18 07:20:55;;;;;;;7.32;1.77;;;;;;;;;;5070512;28;20504;-89
2022/09/18 07:23:21;;;;;;;6.75;1.83;;;;;;;;;;5068369;28;20047;-81
2022/09/18 07:25:47;;;;;;;9.63;1.92;;;;;;;;;;5100556;28;20065;-81
2022/09/18 07:28:13;;;;;;;8.13;1.65;;;;;;;;;;5098445;28;20085;-84
2022/09/18 07:30:39;;;;;;;3.13;1.67;;;;;;;;;;5082512;28;20139;-84
2022/09/18 07:33:06;;;;;;;10.05;1.95;;;;;;;;;;5083238;28;20043;-85
2022/09/18 07:35:33;;;;;;;9.45;2.00;;;;;;;;;;5087323;28;20044;-88
2022/09/18 07:37:59;;;;;;;6.70;1.65;;;;;;;;;;5086290;28;20043;-84
2022/09/18 07:40:26;;;;;;;8.60;2.42;;;;;;;;;;5100086;28;20039;-96
2022/09/18 07:42:57;;;;;;;6.22;1.48;;;;;;;;;;5096607;28;20048;-92
2022/09/18 07:45:23;;;;;;;10.70;1.92;;;;;;;;;;5095835;28;20507;-90
2022/09/18 07:47:49;;;;;;;8.95;1.75;;;;;;;;;;5095556;28;20048;-87
2022/09/18 07:50:15;;;;;;;2.42;1.25;;;;;;;;;;5077335;28;20058;-89
2022/09/18 07:52:59;;;;;;;5.15;1.63;;;11.20;99.90;;;;;;5078392;28;20059;-85
2022/09/18 07:55:26;;;;;;;9.90;1.70;;;;;;;;;;5094858;28;20043;-89
2022/09/18 07:57:57;;;;;;;6.38;1.40;;;11.40;99.90;;;;;;5113859;28;20499;-83
2022/09/18 08:00:24;;;;;;;5.95;1.70;;;11.40;99.90;;;;;;5104643;28;20079;-85
2022/09/18 08:02:51;;;;;;;7.32;1.75;;;;;;;;;;5109147;28;20044;-88
2022/09/18 08:05:17;;;;;;;4.65;1.75;;;;;;;;;;5094463;28;20086;-80
2022/09/18 08:07:43;;;;;;;5.32;1.50;;;;;;;;;;5093526;28;20050;-78
2022/09/18 08:10:10;;;;;;;3.33;1.30;;;;;;;;;;5077164;28;20519;-83
2022/09/18 08:12:36;;;;;;;4.38;1.35;;;;;;;;;;5094213;28;20043;-83
2022/09/18 08:15:03;;;;;;;8.80;1.55;;;;;;;;;;5112287;28;20530;-81
2022/09/18 08:17:29;;;;;;;7.43;1.92;;;;;;;;;;5112290;28;20047;-83
2022/09/18 08:19:55;;;;;;;6.40;1.55;;;;;;;;;;5112198;28;20400;-80
2022/09/18 08:22:22;;;;;;;6.75;1.27;;;;;;;;;;5093879;28;20138;-78
2022/09/18 08:24:48;;;;;;;5.88;1.30;;;;;;;;;;5111639;28;20050;-82
2022/09/18 08:27:14;;;;;;;6.47;1.35;;;;;;;;;;5094641;28;20459;-82
2022/09/18 08:29:40;;;;;;;5.07;1.70;;;;;;;;;;5077401;28;20051;-79
2022/09/18 08:32:06;;;;;;;2.95;1.10;;;;;;;;;;5074857;28;20048;-77
2022/09/18 08:34:32;;;;;;;2.70;1.08;;;;;;;;;;5074691;28;20399;-83
2022/09/18 08:36:58;;;;;;;5.68;1.20;;;;;;;;;;5074806;28;20044;-84
2022/09/18 08:39:25;;;;;;;3.88;1.52;;;;;;;;;;5057698;28;20040;-83
2022/09/18 08:42:24;;;;;;;8.95;1.60;;;11.20;99.90;;;;;;5077026;28;20055;-79
2022/09/18 08:44:54;;;;;;;7.43;1.40;;;11.20;99.90;;;;;;5112560;28;20058;-82
2022/09/18 08:47:27;;;;;;;4.45;1.40;;;11.20;99.90;;;;;;5078482;28;20085;-82
2022/09/18 08:49:57;;;;;;;10.25;1.67;;;11.10;99.90;;;;;;5099863;28;20048;-83
2022/09/18 08:52:27;;;;;;;6.75;1.80;;;11.10;99.90;;;;;;5100725;28;20036;-78
2022/09/18 08:55:04;;;;;;;26.73;2.03;;;11.00;99.90;;;;;;5063465;28;20504;-88
2022/09/18 08:57:34;;;;;;;8.55;1.63;;;11.00;99.90;;;;;;5097600;28;20062;-90
2022/09/18 09:00:30;;;;;;;5.65;1.70;;;11.00;99.90;;;;;;5095558;28;20598;-90
2022/09/18 09:03:18;;;;;;;10.80;1.80;;;11.00;99.90;;;;;;5096390;28;20054;-84
2022/09/18 09:05:48;;;;;;;5.60;1.60;;;11.10;99.90;;;;;;5095918;28;20061;-82
2022/09/18 09:08:45;;;;;;;2.55;1.45;;;11.10;99.90;;;;;;5096391;28;20052;-84
2022/09/18 09:11:34;;;;;;;5.25;1.15;;;11.00;99.90;;;;;;5098212;28;20055;-80
2022/09/18 09:14:07;;;;;;;2.80;1.30;;;;;;;;;;5081637;28;20044;-81
2022/09/18 09:16:47;;;;;;;4.00;1.58;;;11.10;99.90;;;;;;5064633;28;20138;-78
2022/09/18 09:19:24;;;;;;;3.88;1.38;;;;;;;;;;5063273;28;20040;-82
2022/09/18 09:22:31;;;;;;;13.15;2.28;;;10.90;99.90;;;;;;5062776;28;20063;-88
2022/09/18 09:25:22;;;;;;;3.20;1.48;;;11.00;99.90;;;;;;4998391;28;20061;-77
2022/09/18 09:28:30;;;;;;;4.75;1.33;;;11.10;99.90;;;;;;4998462;28;20052;-76
2022/09/18 09:30:59;;;;;;;4.28;1.52;;;;;;;;;;4940602;29;20083;-77
2022/09/18 09:33:48;;;;;;;7.40;1.30;;;11.00;99.90;;;;;;4924373;29;20102;-88
2022/09/18 09:36:15;;;;;;;10.00;1.85;;;;;;;;;;4941242;29;20440;-80
2022/09/18 09:39:03;;;;;;;4.70;1.50;;;11.20;99.90;;;;;;4939834;28;20172;-86
2022/09/18 09:41:47;;;;;;;8.02;1.65;;;10.90;99.90;;;;;;4954225;28;20063;-82
2022/09/18 09:44:38;;;;;;;6.95;1.73;;;11.10;99.90;;;;;;4939428;29;20047;-81
2022/09/18 09:47:13;;;;;;;6.55;1.77;;;;;;;;;;4928845;28;20451;-77
2022/09/18 09:50:00;;;;;;;6.50;2.65;;;;;;;;;;4933655;29;20052;-93
2022/09/18 09:52:45;;;;;;;9.38;1.75;;;;;;;;;;4936620;29;20051;-95
2022/09/18 09:55:19;;;;;;;4.72;2.20;;;;;;;;;;4931364;28;20087;-92
2022/09/18 09:57:45;;;;;;;11.40;2.25;;;;;;;;;;4948124;28;20046;-93
2022/09/18 10:00:16;;;;;;;4.90;1.55;;;;;;;;;;4948538;28;20412;-93
2022/09/18 10:03:02;;;;;;;14.63;4.45;;;;;;;;;;4965528;28;20090;-93
2022/09/18 10:05:45;;;;;;;5.55;1.70;;;;;;;;;;5054927;28;20056;-91
2022/09/18 10:08:30;;;;;;;6.83;2.00;;;;;;;;;;5068290;28;20048;-90
2022/09/18 10:11:01;;;;;;;11.00;2.85;;;;;;;;;;5097284;23;20056;-90
2022/09/18 10:13:35;;;;;;;13.02;3.35;;;;;;;;;;5079685;28;20400;-93
2022/09/18 10:16:04;;;;;;;6.88;2.35;;;;;;;;;;5061683;28;20051;-92
2022/09/18 10:18:39;;;;;;;4.28;1.67;;;;;;;;;;5079500;28;20048;-94
2022/09/18 10:21:08;;;;;;;7.28;1.80;;;;;;;;;;5061878;28;20048;-96
2022/09/18 10:23:38;;;;;;;7.80;2.47;;;;;;;;;;5061877;28;20044;-93
2022/09/18 10:26:05;;;;;;;6.32;2.17;;;;;;;;;;5045898;28;20068;-89
2022/09/18 10:28:32;;;;;;;10.50;2.20;;;;;;;;;;5045196;28;20049;-91
2022/09/18 10:31:00;;;;;;;7.03;1.90;;;;;;;;;;5069741;22;20056;-90
2022/09/18 10:33:59;;;;;;;23.83;3.33;;;;;;;;;;5084189;28;20050;-91
2022/09/18 10:36:29;;;;;;;2.50;1.77;;;;;;;;;;5042122;28;20049;-94
2022/09/18 10:38:59;;;;;;;6.78;1.90;;;;;;;;;;5042526;28;20049;-90
2022/09/18 10:41:39;;;;;;;9.65;1.95;;;;;;;;;;5028973;28;20053;-88
2022/09/18 10:44:22;;;;;;;11.13;1.88;;;;;;;;;;5022941;28;20041;-90
2022/09/18 10:47:00;;;;;;;14.02;2.90;;;;;;;;;;5039878;28;20116;-92
2022/09/18 10:49:34;;;;;;;9.43;2.00;;;;;;;;;;5024687;28;20084;-95
2022/09/18 10:52:19;;;;;;;7.50;1.83;;;;;;;;;;5035513;28;20057;-91
2022/09/18 10:55:04;;;;;;;9.45;2.15;;;;;;;;;;5046003;28;20060;-90
2022/09/18 10:57:31;;;;;;;5.32;1.65;;;;;;;;;;5023911;28;20092;-87
2022/09/18 10:59:57;;;;;;;5.35;2.00;;;;;;;;;;5007651;28;20123;-93
2022/09/18 11:02:25;;;;;;;10.82;1.92;;;;;;;;;;5026202;28;20056;-93
2022/09/18 11:04:52;;;;;;;5.55;1.63;;;;;;;;;;5037467;28;20053;-95
2022/09/18 11:07:23;;;;;;;5.07;1.35;;;;;;;;;;5036930;28;20041;-93
2022/09/18 11:09:50;;;;;;;3.25;1.15;;;;;;;;;;5019784;28;20053;-88
2022/09/18 11:12:22;;;;;;;10.32;1.50;;;;;;;;;;5044437;28;20428;-88
2022/09/18 11:15:02;;;;;;;8.85;2.00;;;12.90;99.90;;;;;;5086969;28;20071;-86
2022/09/18 11:17:32;;;;;;;8.60;1.63;;;;;;;;;;5079918;28;20047;-92
2022/09/18 11:20:00;;;;;;;13.05;1.90;;;;;;;;;;5079101;28;20047;-92
2022/09/18 11:22:43;;;;;;;6.03;1.73;;;12.90;99.90;;;;;;5079580;28;20048;-90
2022/09/18 11:25:18;;;;;;;3.05;1.13;;;;;;;;;;5045795;28;20032;-92
2022/09/18 11:27:45;;;;;;;7.47;1.30;;;;;;;;;;5078729;28;20047;-93
2022/09/18 11:30:21;;;;;;;6.85;1.40;;;13.10;99.90;;;;;;5034684;28;20075;-88
2022/09/18 11:32:55;;;;;;;5.72;1.55;;;12.90;99.90;;;;;;5057342;28;20041;-90
2022/09/18 11:35:21;;;;;;;6.35;1.30;;;;;;;;;;5059910;28;20052;-90
2022/09/18 11:37:56;;;;;;;10.07;1.27;;;;;;;;;;5042313;28;20047;-90
2022/09/18 11:40:31;;;;;;;6.82;1.33;;;;;;;;;;5042551;28;20511;-89
2022/09/18 11:42:58;;;;;;;3.70;1.27;;;;;;;;;;5043317;28;20496;-90
2022/09/18 11:45:30;;;;;;;5.55;1.40;;;13.00;99.90;;;;;;5060054;28;20075;-93
2022/09/18 11:48:00;;;;;;;4.22;1.67;;;;;;;;;;5041847;28;20044;-90
2022/09/18 11:50:31;;;;;;;6.53;1.40;;;13.30;99.90;;;;;;5044258;28;20049;-90
2022/09/18 11:53:13;;;;;;;10.57;1.83;;;13.60;99.90;;;;;;5043320;28;20040;-86
2022/09/18 11:55:43;;;;;;;7.82;1.85;;;;;;;;;;5043872;28;20186;-88
2022/09/18 11:58:18;;;;;;;2.20;1.10;;;;;;;;;;5052538;28;20067;-88
2022/09/18 12:00:49;;;;;;;3.58;1.17;;;;;;;;;;5040837;28;20049;-93
2022/09/18 12:03:29;;;;;;;6.00;1.60;;;;;;;;;;5058072;28;20048;-89
2022/09/18 12:06:00;;;;;;;3.42;2.15;;;;;;;;;;5051877;28;20127;-84
2022/09/18 12:08:40;;;;;;;3.92;1.20;;;;;;;;;;5060490;28;20408;-92
2022/09/18 12:11:18;;;;;;;5.57;1.33;;;;;;;;;;5073079;28;20052;-83
2022/09/18 12:14:17;;;;;;;8.60;1.55;;;13.60;99.90;;;;;;5055452;28;20111;-83
2022/09/18 12:16:55;;;;;;;7.68;1.52;;;;;;;;;;4974690;28;20062;-82
2022/09/18 12:19:27;;;;;;;6.88;1.30;;;;;;;;;;4979066;28;20498;-82
2022/09/18 12:21:53;;;;;;;15.55;2.25;;;;;;;;;;4991135;28;20173;-83
2022/09/18 12:24:19;;;;;;;9.02;2.10;;;;;;;;;;4975136;28;20049;-84
2022/09/18 12:26:52;;;;;;;4.85;1.30;;;;;;;;;;4959116;28;20044;-82
2022/09/18 12:29:26;;;;;;;4.35;1.10;;;;;;;;;;4990407;28;20141;-83
2022/09/18 12:31:58;;;;;;;3.13;1.17;;;;;;;;;;4991287;28;20083;-83
2022/09/18 12:34:33;;;;;;;2.78;1.20;;;;;;;;;;4959355;28;20081;-82
2022/09/18 12:37:21;;;;;;;4.65;1.77;;;13.60;99.90;;;;;;4974882;28;20407;-83
2022/09/18 12:40:03;;;;;;;7.10;1.95;;;;;;;;;;4974624;28;20051;-82
2022/09/18 12:42:44;;;;;;;8.30;1.50;;;;;;;;;;4991478;28;20129;-82
2022/09/18 12:45:17;;;;;;;4.65;1.38;;;;;;;;;;4974976;28;20070;-83
2022/09/18 12:47:51;;;;;;;8.73;1.70;;;;;;;;;;4990558;28;20058;-81
2022/09/18 12:50:27;;;;;;;4.70;1.50;;;;;;;;;;4990612;28;20137;-82
2022/09/18 12:53:04;;;;;;;7.68;1.83;;;;;;;;;;4987772;28;20045;-82
2022/09/18 12:55:45;;;;;;;4.30;1.30;;;;;;;;;;5033818;28;20049;-81
2022/09/18 12:58:21;;;;;;;5.53;1.65;;;;;;;;;;5034469;28;20127;-81
2022/09/18 13:00:49;;;;;;;3.22;1.42;;;13.90;99.90;;;;;;5034322;28;20063;-81
2022/09/18 13:03:24;;;;;;;5.63;1.67;;;;;;;;;;5070071;28;20052;-81
2022/09/18 13:05:57;;;;;;;7.93;1.45;;;13.60;99.90;;;;;;5071803;28;20090;-80
2022/09/18 13:08:41;;;;;;;17.90;2.90;;;;;;;;;;5053920;28;20037;-80
2022/09/18 13:11:17;;;;;;;8.45;1.98;;;;;;;;;;5071751;28;20682;-81
2022/09/18 13:13:59;;;;;;;4.60;1.35;;;;;;;;;;5052776;28;20052;-83
2022/09/18 13:16:28;;;;;;;3.65;1.15;;;;;;;;;;5053494;28;20127;-81
2022/09/18 13:19:00;;;;;;;2.38;1.20;;;;;;;;;;5070609;28;20051;-81
2022/09/18 13:21:33;;;;;;;8.18;1.83;;;13.90;99.90;;;;;;5053764;28;20465;-81
2022/09/18 13:24:00;;;;;;;10.23;1.60;;;;;;;;;;5049953;28;20073;-82
2022/09/18 13:26:29;;;;;;;10.70;1.83;;;13.70;99.90;;;;;;5033389;28;20051;-81
2022/09/18 13:28:56;;;;;;;4.75;1.38;;;;;;;;;;5051976;28;20131;-81
2022/09/18 13:31:26;;;;;;;5.97;1.25;;;;;;;;;;5057038;28;20049;-80
2022/09/18 13:33:56;;;;;;;3.10;0.93;;;;;;;;;;5056728;28;20048;-82
2022/09/18 13:36:28;;;;;;;9.05;1.25;;;13.70;99.90;;;;;;5057026;28;20535;-85
2022/09/18 13:38:56;;;;;;;2.15;0.95;;;;;;;;;;5075051;28;20056;-81
2022/09/18 13:41:22;;;;;;;1.25;1.05;;;;;;;;;;5056739;28;20437;-86
2022/09/18 13:43:56;;;;;;;5.22;1.08;;;;;;;;;;5074455;28;20044;-81
2022/09/18 13:46:29;;;;;;;4.68;1.33;;;;;;;;;;5053101;28;20536;-83
2022/09/18 13:48:55;;;;;;;2.78;1.17;;;;;;;;;;5056237;28;20052;-82
2022/09/18 13:51:31;;;;;;;6.53;1.88;;;;;;;;;;5056942;28;20108;-80
2022/09/18 13:54:16;;;;;;;6.93;1.38;;;13.40;99.90;;;;;;5056389;28;20398;-81
2022/09/18 13:57:09;;;;;;;5.32;1.42;;;13.40;99.90;;;;;;5053093;28;20629;-81
2022/09/18 13:59:44;;;;;;;6.85;1.55;;;;;;;;;;5045107;28;20051;-83
2022/09/18 14:02:30;;;;;;;2.47;1.08;;;;;;;;;;5036419;28;20041;-83
2022/09/18 14:04:57;;;;;;;5.35;1.40;;;;;;;;;;5031008;28;20485;-82
2022/09/18 14:07:23;;;;;;;8.18;1.30;;;;;;;;;;5055590;28;20136;-82
2022/09/18 14:09:52;;;;;;;1.88;1.10;;;;;;;;;;5074196;28;20055;-82
2022/09/18 14:12:19;;;;;;;7.72;1.90;;;;;;;;;;5039967;28;20049;-82
2022/09/18 14:14:57;;;;;;;3.92;1.65;;;;;;;;;;5056606;28;20076;-82
2022/09/18 14:17:24;;;;;;;6.00;1.80;;;;;;;;;;5072401;28;20044;-82
2022/09/18 14:20:00;;;;;;;9.63;2.25;;;;;;;;;;5074081;28;20086;-82
2022/09/18 14:22:29;;;;;;;15.15;2.05;;;;;;;;;;5074145;28;20086;-82
2022/09/18 14:25:02;;;;;;;7.03;1.90;;;;;;;;;;5039362;28;20045;-82
2022/09/18 14:27:36;;;;;;;6.53;1.63;;;;;;;;;;5072415;28;20123;-81
2022/09/18 14:30:11;;;;;;;6.80;1.58;;;;;;;;;;5053298;28;20056;-83
2022/09/18 14:32:37;;;;;;;14.52;2.10;;;;;;;;;;5055822;28;20040;-82
2022/09/18 14:35:34;;;;;;;8.60;2.45;;;13.10;99.90;;;;;;5055833;28;20036;-82
2022/09/18 14:38:00;;;;;;;14.52;2.20;;;;;;;;;;5031985;28;20052;-82